createdAt,value
2019-03-23T10:38:19.090Z,1022.88
2019-03-23T10:39:19.054Z,1022.92
2019-03-23T10:40:19.042Z,1022.91
2019-03-23T10:41:19.036Z,1022.86
2019-03-23T10:42:19.013Z,1022.86
2019-03-23T10:43:19.023Z,1022.86
2019-03-23T10:44:19.009Z,1022.86
2019-03-23T10:45:18.978Z,1022.82
2019-03-23T10:46:18.975Z,1022.87
2019-03-23T10:47:18.991Z,1022.88
2019-03-23T10:48:18.933Z,1022.76
2019-03-23T10:49:18.949Z,1022.74
2019-03-23T10:50:18.923Z,1022.75
2019-03-23T10:51:18.921Z,1022.76
2019-03-23T10:52:18.890Z,1022.75
2019-03-23T10:53:23.085Z,1022.73
2019-03-23T10:54:19.056Z,1022.67
2019-03-23T10:55:19.070Z,1022.70
2019-03-23T10:56:18.844Z,1022.67
2019-03-23T10:57:18.841Z,1022.70
2019-03-23T10:58:18.821Z,1022.68
2019-03-23T10:59:18.853Z,1022.69
2019-03-23T11:00:18.816Z,1022.77
2019-03-23T11:01:18.796Z,1022.80
2019-03-23T11:02:18.780Z,1022.77
2019-03-23T11:03:18.785Z,1022.76
2019-03-23T11:04:18.795Z,1022.81
2019-03-23T11:05:18.747Z,1022.75
2019-03-23T11:06:18.733Z,1022.75
2019-03-23T11:07:18.739Z,1022.74
2019-03-23T11:08:18.738Z,1022.74
2019-03-23T11:09:18.735Z,1022.80
2019-03-23T11:10:18.695Z,1022.80
2019-03-23T11:11:18.680Z,1022.84
2019-03-23T11:12:18.668Z,1022.79
2019-03-23T11:13:18.655Z,1022.77
2019-03-23T11:14:18.680Z,1022.81
2019-03-23T11:15:18.633Z,1022.80
2019-03-23T11:16:18.620Z,1022.76
2019-03-23T11:17:18.609Z,1022.78
2019-03-23T11:18:18.613Z,1022.79
2019-03-23T11:19:18.595Z,1022.82
2019-03-23T11:20:18.697Z,1022.81
2019-03-23T11:21:18.568Z,1022.78
2019-03-23T11:22:18.556Z,1022.80
2019-03-23T11:23:18.545Z,1022.82
2019-03-23T11:24:18.534Z,1022.82
2019-03-23T11:25:18.534Z,1022.87
2019-03-23T11:26:18.552Z,1022.87
2019-03-23T11:27:18.498Z,1022.80
2019-03-23T11:28:18.488Z,1022.84
2019-03-23T11:29:18.505Z,1022.87
2019-03-23T11:30:18.470Z,1022.88
2019-03-23T11:31:18.486Z,1022.92
2019-03-23T11:32:18.450Z,1022.88
2019-03-23T11:33:18.430Z,1022.90
2019-03-23T11:34:18.428Z,1022.90
2019-03-23T11:35:18.534Z,1022.88
2019-03-23T11:36:18.414Z,1022.90
2019-03-23T11:37:18.541Z,1022.90
2019-03-23T11:38:18.375Z,1022.87
2019-03-23T11:39:18.371Z,1022.84
2019-03-23T11:40:18.395Z,1022.88
2019-03-23T11:41:18.355Z,1022.86
2019-03-23T11:42:18.356Z,1022.86
2019-03-23T11:43:18.324Z,1022.85
2019-03-23T11:44:18.310Z,1022.81
2019-03-23T11:45:18.334Z,1022.88
2019-03-23T11:46:18.295Z,1022.83
2019-03-23T11:47:18.283Z,1022.83
2019-03-23T11:48:18.263Z,1022.79
2019-03-23T11:49:18.254Z,1022.79
2019-03-23T11:50:18.243Z,1022.76
2019-03-23T11:51:18.257Z,1022.78
2019-03-23T11:52:18.220Z,1022.75
2019-03-23T11:54:19.310Z,1022.81
2019-03-23T11:55:18.187Z,1022.82
2019-03-23T11:56:18.201Z,1022.85
2019-03-23T11:57:18.201Z,1022.83
2019-03-23T11:58:18.153Z,1022.81
2019-03-23T11:59:18.153Z,1022.83
2019-03-23T12:00:18.135Z,1022.83
2019-03-23T12:01:18.145Z,1022.84
2019-03-23T12:02:18.104Z,1022.85
2019-03-23T12:03:18.103Z,1022.87
2019-03-23T12:04:18.100Z,1022.84
2019-03-23T12:05:18.078Z,1022.85
2019-03-23T12:06:18.519Z,1022.83
2019-03-23T12:07:18.072Z,1022.84
2019-03-23T12:08:18.429Z,1022.82
2019-03-23T12:09:18.029Z,1022.82
2019-03-23T12:10:18.031Z,1022.84
2019-03-23T12:11:18.008Z,1022.85
2019-03-23T12:12:18.023Z,1022.89
2019-03-23T12:13:17.985Z,1022.86
2019-03-23T12:14:17.985Z,1022.86
2019-03-23T12:15:17.972Z,1022.85
2019-03-23T12:16:17.979Z,1022.87
2019-03-23T12:17:17.947Z,1022.88
2019-03-23T12:18:17.926Z,1022.87
2019-03-23T12:19:17.928Z,1022.89
2019-03-23T12:20:17.909Z,1022.89
2019-03-23T12:21:18.062Z,1022.90
2019-03-23T12:22:17.889Z,1022.90
2019-03-23T12:23:17.929Z,1022.96
2019-03-23T12:24:17.860Z,1022.97
2019-03-23T12:25:17.860Z,1022.91
2019-03-23T12:26:17.871Z,1022.94
2019-03-23T12:27:17.835Z,1022.92
2019-03-23T12:28:17.850Z,1022.95
2019-03-23T12:29:17.810Z,1022.94
2019-03-23T12:30:17.796Z,1022.90
2019-03-23T12:31:17.840Z,1022.93
2019-03-23T12:32:17.812Z,1022.93
2019-03-23T12:33:17.803Z,1022.94
2019-03-23T12:34:17.931Z,1022.97
2019-03-23T12:35:17.737Z,1022.99
2019-03-23T12:36:17.728Z,1022.98
